createdAt,value
2023-04-15T00:01:52.868Z,5.25
2023-04-15T00:03:57.543Z,5.30
2023-04-15T00:06:02.406Z,5.18
2023-04-15T00:08:06.494Z,4.83
2023-04-15T00:10:09.927Z,5.08
2023-04-15T00:12:13.239Z,5.07
2023-04-15T00:14:16.519Z,5.18
2023-04-15T00:16:19.285Z,4.60
2023-04-15T00:18:22.135Z,4.96
2023-04-15T00:20:25.004Z,4.83
2023-04-15T00:22:29.208Z,5.17
2023-04-15T00:24:32.721Z,4.70
2023-04-15T00:26:35.734Z,4.93
2023-04-15T00:28:38.645Z,4.83
2023-04-15T00:30:41.670Z,4.99
2023-04-15T00:32:45.034Z,4.96
2023-04-15T00:34:47.926Z,3.61
2023-04-15T00:36:51.471Z,4.99
2023-04-15T00:38:55.656Z,4.61
2023-04-15T00:40:58.489Z,4.35
2023-04-15T00:43:01.446Z,5.08
2023-04-15T00:45:05.469Z,4.39
2023-04-15T00:47:08.848Z,4.72
2023-04-15T00:49:11.805Z,4.80
2023-04-15T00:51:14.849Z,4.70
2023-04-15T00:53:17.703Z,4.35
2023-04-15T00:55:21.909Z,4.42
2023-04-15T00:57:24.887Z,3.35
2023-04-15T00:59:28.728Z,4.49
2023-04-15T01:01:32.801Z,4.23
2023-04-15T01:03:36.935Z,2.04
2023-04-15T01:05:40.414Z,2.59
2023-04-15T01:07:43.136Z,4.59
2023-04-15T01:09:47.080Z,2.70
2023-04-15T01:11:51.769Z,4.58
2023-04-15T01:13:56.832Z,4.60
2023-04-15T01:15:59.623Z,3.34
2023-04-15T01:18:03.825Z,3.82
2023-04-15T01:20:10.154Z,4.49
2023-04-15T01:22:13.899Z,4.44
2023-04-15T01:24:19.566Z,4.47
2023-04-15T01:26:24.596Z,4.49
2023-04-15T01:28:27.496Z,4.42
2023-04-15T01:30:30.495Z,4.25
2023-04-15T01:32:33.313Z,4.32
2023-04-15T01:34:36.120Z,4.35
2023-04-15T01:36:38.835Z,4.33
2023-04-15T01:38:41.865Z,3.98
2023-04-15T01:40:44.941Z,4.14
2023-04-15T01:42:49.066Z,3.98
2023-04-15T01:44:51.932Z,4.15
2023-04-15T01:46:54.741Z,4.19
2023-04-15T01:48:57.550Z,4.19
2023-04-15T01:51:02.188Z,4.20
2023-04-15T01:53:05.079Z,4.24
2023-04-15T01:55:09.622Z,4.30
2023-04-15T01:57:12.418Z,3.76
2023-04-15T01:59:16.852Z,4.05
2023-04-15T02:01:20.768Z,4.14
2023-04-15T02:03:23.798Z,4.13
2023-04-15T02:05:28.852Z,3.88
2023-04-15T02:07:32.330Z,3.65
2023-04-15T02:09:35.054Z,3.68
2023-04-15T02:11:39.193Z,3.65
2023-04-15T02:13:42.269Z,3.87
2023-04-15T02:15:49.571Z,3.56
2023-04-15T02:17:55.462Z,2.67
2023-04-15T02:19:58.343Z,3.24
2023-04-15T02:22:01.536Z,2.62
2023-04-15T02:24:04.414Z,2.97
2023-04-15T02:26:08.099Z,3.32
2023-04-15T02:28:11.018Z,3.42
2023-04-15T02:30:13.937Z,2.30
2023-04-15T02:32:18.629Z,1.77
2023-04-15T02:34:22.879Z,2.80
2023-04-15T02:36:27.053Z,2.76
2023-04-15T02:38:31.001Z,3.22
2023-04-15T02:40:33.988Z,3.43
2023-04-15T02:42:36.847Z,3.33
2023-04-15T02:44:39.856Z,3.66
2023-04-15T02:46:43.184Z,3.70
2023-04-15T02:48:47.468Z,3.69
2023-04-15T02:50:50.282Z,3.61
2023-04-15T02:52:53.357Z,3.05
2023-04-15T02:55:00.437Z,3.70
2023-04-15T02:57:04.080Z,3.74
2023-04-15T02:59:07.055Z,3.78
2023-04-15T03:01:09.940Z,3.70
2023-04-15T03:03:15.268Z,3.78
2023-04-15T03:05:19.578Z,3.54
2023-04-15T03:07:25.639Z,3.76
2023-04-15T03:09:29.677Z,3.69
2023-04-15T03:11:35.390Z,2.36
2023-04-15T03:13:41.841Z,3.35
2023-04-15T03:15:52.104Z,3.05
2023-04-15T03:17:55.997Z,2.58
2023-04-15T03:19:58.858Z,2.11
2023-04-15T03:22:03.461Z,2.33
2023-04-15T03:24:06.872Z,2.61
2023-04-15T03:26:09.660Z,2.69
2023-04-15T03:28:13.428Z,2.29
2023-04-15T03:30:16.441Z,2.31
2023-04-15T03:32:19.318Z,2.33
2023-04-15T03:34:22.138Z,2.24
2023-04-15T03:36:24.842Z,1.88
2023-04-15T03:38:28.966Z,0.82
2023-04-15T03:40:31.732Z,1.92
2023-04-15T03:42:34.488Z,1.80
2023-04-15T03:44:37.301Z,1.61
2023-04-15T03:46:40.125Z,2.29
2023-04-15T03:48:42.889Z,2.35
2023-04-15T03:50:46.063Z,2.49
2023-04-15T03:52:50.689Z,2.37
2023-04-15T03:54:55.322Z,2.22
2023-04-15T03:56:58.527Z,2.10
2023-04-15T03:59:01.652Z,2.98
2023-04-15T04:01:04.677Z,3.09
2023-04-15T04:03:08.436Z,3.14
2023-04-15T04:05:11.409Z,3.17
2023-04-15T04:07:16.944Z,3.19
2023-04-15T04:09:19.703Z,3.09
2023-04-15T04:11:23.889Z,2.87
2023-04-15T04:13:26.653Z,2.39
2023-04-15T04:15:29.708Z,2.66
2023-04-15T04:17:32.636Z,2.61
2023-04-15T04:19:36.144Z,2.17
2023-04-15T04:21:39.695Z,2.83
2023-04-15T04:23:42.538Z,2.70
2023-04-15T04:25:45.611Z,2.08
2023-04-15T04:27:49.713Z,1.86
2023-04-15T04:29:52.510Z,2.74
2023-04-15T04:31:55.505Z,2.80
2023-04-15T04:33:58.321Z,2.31
2023-04-15T04:36:01.420Z,2.61
2023-04-15T04:38:04.454Z,2.41
2023-04-15T04:40:09.440Z,2.24
2023-04-15T04:42:12.557Z,2.16
2023-04-15T04:44:16.954Z,2.16
2023-04-15T04:46:19.886Z,1.74
2023-04-15T04:48:22.911Z,2.50
2023-04-15T04:50:25.642Z,2.70
2023-04-15T04:52:28.450Z,2.80
2023-04-15T04:54:31.551Z,1.95
2023-04-15T04:56:34.722Z,3.09
2023-04-15T04:58:38.167Z,3.17
2023-04-15T05:00:42.846Z,3.21
2023-04-15T05:02:46.112Z,3.05
2023-04-15T05:04:50.114Z,3.32
2023-04-15T05:06:53.066Z,2.86
2023-04-15T05:08:56.700Z,3.37
2023-04-15T05:10:59.554Z,3.48
2023-04-15T05:13:02.552Z,3.48
2023-04-15T05:15:06.449Z,3.45
2023-04-15T05:17:11.275Z,3.46
2023-04-15T05:19:13.992Z,3.09
2023-04-15T05:21:16.726Z,2.20
2023-04-15T05:23:19.987Z,3.35
2023-04-15T05:25:23.018Z,3.55
2023-04-15T05:27:26.062Z,3.68
2023-04-15T05:29:29.416Z,3.44
2023-04-15T05:31:32.218Z,3.66
2023-04-15T05:33:37.635Z,3.66
2023-04-15T05:35:40.611Z,3.74
2023-04-15T05:37:43.514Z,3.75
2023-04-15T05:39:46.244Z,3.79
2023-04-15T05:41:49.027Z,3.83
2023-04-15T05:43:51.913Z,3.84
2023-04-15T05:45:54.718Z,3.04
2023-04-15T05:47:57.529Z,3.83
2023-04-15T05:50:01.784Z,3.10
2023-04-15T05:52:04.794Z,3.18
2023-04-15T05:54:07.822Z,3.34
2023-04-15T05:56:10.617Z,3.92
2023-04-15T05:58:13.414Z,3.72
2023-04-15T06:00:16.846Z,4.01
2023-04-15T06:02:19.757Z,3.21
2023-04-15T06:04:22.860Z,3.15
2023-04-15T06:06:27.559Z,3.34
2023-04-15T06:08:30.305Z,3.65
2023-04-15T06:10:36.626Z,3.96
2023-04-15T06:12:39.733Z,4.15
2023-04-15T06:14:42.543Z,4.36
2023-04-15T06:16:45.373Z,4.20
2023-04-15T06:18:48.146Z,4.61
2023-04-15T06:20:51.008Z,4.73
2023-04-15T06:22:55.128Z,4.86
2023-04-15T06:24:57.890Z,4.94
2023-04-15T06:27:02.131Z,5.11
2023-04-15T06:29:05.089Z,5.27
2023-04-15T06:31:08.015Z,5.36
2023-04-15T06:33:10.849Z,5.48
2023-04-15T06:35:13.655Z,5.60
2023-04-15T06:37:16.570Z,5.68
2023-04-15T06:39:20.650Z,5.76
2023-04-15T06:41:23.450Z,5.81
2023-04-15T06:43:26.214Z,5.87
2023-04-15T06:45:29.041Z,5.42
2023-04-15T06:47:32.234Z,5.98
2023-04-15T06:49:35.061Z,6.05
2023-04-15T06:51:37.963Z,5.91
2023-04-15T06:53:45.323Z,5.59
2023-04-15T06:55:49.455Z,5.39
2023-04-15T06:57:52.286Z,6.29
2023-04-15T06:59:55.457Z,6.38
2023-04-15T07:01:58.300Z,6.33
2023-04-15T07:04:01.252Z,6.52
2023-04-15T07:06:06.854Z,6.60
2023-04-15T07:08:09.611Z,6.75
2023-04-15T07:10:13.050Z,6.87
2023-04-15T07:12:17.282Z,6.96
2023-04-15T07:14:20.120Z,6.13
2023-04-15T07:16:23.068Z,7.07
2023-04-15T07:18:26.066Z,7.15
2023-04-15T07:20:28.859Z,6.98
2023-04-15T07:22:31.649Z,7.01
2023-04-15T07:24:34.500Z,7.29
2023-04-15T07:26:37.231Z,6.43
2023-04-15T07:28:41.614Z,7.36
2023-04-15T07:30:44.382Z,7.63
2023-04-15T07:32:47.473Z,7.65
2023-04-15T07:34:50.251Z,7.21
2023-04-15T07:36:53.060Z,7.61
2023-04-15T07:38:56.339Z,7.44
2023-04-15T07:40:59.234Z,7.57
2023-04-15T07:43:02.035Z,7.24
2023-04-15T07:45:07.063Z,7.91
2023-04-15T07:47:09.825Z,7.94
2023-04-15T07:49:13.442Z,8.15
2023-04-15T07:51:16.293Z,8.08
2023-04-15T07:53:19.138Z,8.07
2023-04-15T07:55:23.406Z,7.81
2023-04-15T07:57:26.189Z,7.68
2023-04-15T07:59:30.123Z,8.51
2023-04-15T08:01:34.417Z,8.59
2023-04-15T08:03:37.714Z,8.64
2023-04-15T08:05:41.002Z,8.73
2023-04-15T08:07:43.768Z,8.81
2023-04-15T08:09:46.933Z,8.85
2023-04-15T08:11:50.745Z,7.99
2023-04-15T08:13:53.815Z,9.04
2023-04-15T08:16:16.204Z,8.96
2023-04-15T08:18:20.528Z,9.24
2023-04-15T08:20:23.620Z,9.45
2023-04-15T08:22:26.405Z,9.61
2023-04-15T08:24:29.371Z,9.72
2023-04-15T08:26:32.185Z,9.82
2023-04-15T08:28:35.003Z,9.89
2023-04-15T08:30:37.842Z,10.06
2023-04-15T08:32:40.766Z,10.17
2023-04-15T08:34:44.901Z,10.34
2023-04-15T08:36:47.693Z,10.51
2023-04-15T08:38:50.471Z,10.64
2023-04-15T08:40:53.325Z,10.68
2023-04-15T08:42:59.942Z,10.60
2023-04-15T08:45:06.181Z,10.21
2023-04-15T08:47:10.044Z,10.67
2023-04-15T08:49:14.078Z,10.73
2023-04-15T08:51:19.537Z,11.15
2023-04-15T08:53:22.547Z,11.16
2023-04-15T08:55:30.743Z,11.41
2023-04-15T08:57:34.342Z,11.37
2023-04-15T08:59:37.096Z,11.58
2023-04-15T09:01:40.713Z,11.75
2023-04-15T09:03:44.127Z,11.55
2023-04-15T09:05:47.589Z,11.95
2023-04-15T09:07:51.893Z,11.25
2023-04-15T09:09:54.683Z,12.15
2023-04-15T09:11:57.424Z,12.25
2023-04-15T09:14:00.184Z,12.41
2023-04-15T09:16:04.283Z,11.74
2023-04-15T09:18:07.397Z,12.58
2023-04-15T09:20:13.006Z,12.51
2023-04-15T09:22:16.570Z,12.75
2023-04-15T09:24:20.576Z,12.64
2023-04-15T09:26:32.183Z,12.10
2023-04-15T09:28:42.172Z,12.92
2023-04-15T09:30:46.157Z,13.09
2023-04-15T09:32:51.227Z,13.24
2023-04-15T09:34:53.968Z,13.43
2023-04-15T09:36:58.157Z,13.31
2023-04-15T09:39:01.735Z,13.21
2023-04-15T09:41:19.524Z,12.63
2023-04-15T09:43:22.382Z,13.78
2023-04-15T09:45:29.374Z,13.51
2023-04-15T09:47:33.247Z,13.75
2023-04-15T09:49:36.143Z,13.55
2023-04-15T09:51:39.423Z,13.70
2023-04-15T09:53:42.171Z,13.67
2023-04-15T09:55:47.024Z,13.66
2023-04-15T09:57:51.138Z,13.86
2023-04-15T09:59:53.979Z,13.93
2023-04-15T10:01:56.976Z,14.28
2023-04-15T10:04:04.111Z,14.07
2023-04-15T10:06:07.186Z,13.76
2023-04-15T10:08:10.910Z,13.89
2023-04-15T10:10:15.782Z,14.29
2023-04-15T10:12:19.936Z,13.78
2023-04-15T10:14:26.844Z,14.11
2023-04-15T10:16:30.035Z,14.44
2023-04-15T10:18:36.551Z,14.61
2023-04-15T10:20:39.947Z,14.73
2023-04-15T10:22:44.045Z,15.10
2023-04-15T10:24:48.883Z,14.76
2023-04-15T10:26:52.760Z,14.91
2023-04-15T10:28:55.667Z,15.35
2023-04-15T10:31:00.375Z,15.63
2023-04-15T10:33:04.437Z,15.79
2023-04-15T10:35:09.434Z,15.63
2023-04-15T10:37:12.366Z,15.40
2023-04-15T10:39:40.905Z,14.60
2023-04-15T10:41:43.655Z,14.83
2023-04-15T10:43:51.578Z,15.06
2023-04-15T10:45:54.762Z,14.97
2023-04-15T10:48:01.009Z,14.55
2023-04-15T10:50:06.531Z,13.72
2023-04-15T10:52:09.554Z,13.81
2023-04-15T10:54:15.946Z,14.20
2023-04-15T10:56:18.720Z,14.47
2023-04-15T10:58:25.407Z,14.53
2023-04-15T11:00:31.036Z,14.43
2023-04-15T11:02:41.835Z,13.66
2023-04-15T11:04:59.444Z,14.48
2023-04-15T11:07:07.512Z,14.60
2023-04-15T11:09:34.022Z,15.03
2023-04-15T11:12:16.353Z,14.84
2023-04-15T11:14:19.114Z,14.57
2023-04-15T11:16:21.958Z,14.53
2023-04-15T11:18:25.858Z,14.09
2023-04-15T11:20:30.800Z,14.11
2023-04-15T11:22:33.576Z,13.16
2023-04-15T11:24:36.378Z,14.02
2023-04-15T11:26:40.086Z,13.69
2023-04-15T11:28:44.891Z,13.83
2023-04-15T11:30:48.286Z,14.04
2023-04-15T11:32:51.684Z,14.46
2023-04-15T11:34:54.478Z,14.30
2023-04-15T11:36:59.521Z,14.51
2023-04-15T11:39:02.297Z,13.43
2023-04-15T11:41:05.155Z,14.43
2023-04-15T11:43:09.349Z,14.61
2023-04-15T11:45:14.240Z,14.16
2023-04-15T11:47:24.175Z,13.77
2023-04-15T11:49:28.077Z,13.81
2023-04-15T11:51:34.630Z,12.49
2023-04-15T11:53:41.254Z,12.93
2023-04-15T11:55:46.274Z,14.19
2023-04-15T11:57:49.081Z,14.24
2023-04-15T11:59:56.082Z,14.63
2023-04-15T12:01:59.732Z,14.25
2023-04-15T12:04:04.360Z,14.44
2023-04-15T12:06:19.312Z,13.77
2023-04-15T12:08:22.280Z,13.87
2023-04-15T12:10:26.880Z,14.27
2023-04-15T12:12:30.855Z,14.76
2023-04-15T12:14:34.552Z,15.40
2023-04-15T12:16:48.915Z,15.89
2023-04-15T12:18:55.863Z,14.85
2023-04-15T12:21:09.919Z,15.17
2023-04-15T12:23:13.455Z,15.18
2023-04-15T12:25:16.307Z,15.86
2023-04-15T12:27:21.099Z,15.08
2023-04-15T12:29:27.687Z,15.88
2023-04-15T12:31:31.219Z,15.94
2023-04-15T12:33:34.658Z,14.66
2023-04-15T12:35:37.544Z,14.62
2023-04-15T12:37:40.344Z,14.48
2023-04-15T12:39:44.968Z,14.67
2023-04-15T12:41:47.762Z,15.47
2023-04-15T12:43:52.127Z,15.31
2023-04-15T12:45:55.054Z,15.83
2023-04-15T12:47:57.846Z,16.58
2023-04-15T12:50:00.657Z,17.38
2023-04-15T12:52:04.698Z,17.19
2023-04-15T12:54:07.630Z,16.13
2023-04-15T12:56:10.458Z,16.57
2023-04-15T12:58:13.577Z,15.96
2023-04-15T13:00:18.110Z,16.48
2023-04-15T13:02:25.637Z,16.40
2023-04-15T13:04:30.660Z,16.36
2023-04-15T13:06:34.493Z,16.16
2023-04-15T13:08:40.483Z,15.77
2023-04-15T13:10:45.633Z,15.15
2023-04-15T13:12:50.120Z,15.04
2023-04-15T13:14:53.031Z,13.93
2023-04-15T13:16:58.097Z,14.74
2023-04-15T13:19:01.601Z,15.08
2023-04-15T13:21:07.400Z,15.07
2023-04-15T13:23:10.728Z,15.50
2023-04-15T13:25:13.665Z,16.33
2023-04-15T13:27:16.514Z,16.02
2023-04-15T13:29:19.289Z,16.09
2023-04-15T13:31:22.076Z,17.22
2023-04-15T13:33:26.239Z,16.70
2023-04-15T13:35:29.082Z,16.90
2023-04-15T13:37:31.982Z,14.10
2023-04-15T13:39:34.751Z,16.18
2023-04-15T13:41:37.497Z,15.79
2023-04-15T13:43:40.725Z,16.48
2023-04-15T13:45:43.572Z,14.94
2023-04-15T13:47:46.479Z,15.53
2023-04-15T13:49:50.734Z,15.23
2023-04-15T13:51:53.585Z,14.92
2023-04-15T13:53:58.092Z,14.80
2023-04-15T13:56:00.937Z,14.40
2023-04-15T13:58:03.801Z,13.71
2023-04-15T14:00:07.823Z,13.77
2023-04-15T14:02:11.433Z,13.62
2023-04-15T14:04:15.065Z,13.50
2023-04-15T14:06:19.676Z,13.71
2023-04-15T14:08:22.591Z,13.59
2023-04-15T14:10:25.327Z,13.39
2023-04-15T14:12:28.131Z,13.53
2023-04-15T14:14:31.143Z,13.28
2023-04-15T14:16:34.282Z,13.71
2023-04-15T14:18:37.586Z,13.59
2023-04-15T14:20:40.544Z,13.15
2023-04-15T14:22:44.685Z,13.17
2023-04-15T14:24:48.757Z,13.35
2023-04-15T14:26:51.658Z,12.22
2023-04-15T14:28:54.432Z,12.87
2023-04-15T14:30:57.261Z,12.88
2023-04-15T14:33:00.179Z,12.97
2023-04-15T14:35:04.333Z,12.62
2023-04-15T14:37:07.538Z,12.47
2023-04-15T14:39:11.758Z,12.98
2023-04-15T14:41:14.514Z,12.89
2023-04-15T14:43:17.276Z,12.18
2023-04-15T14:45:20.049Z,12.81
2023-04-15T14:47:22.891Z,12.45
2023-04-15T14:49:26.041Z,12.29
2023-04-15T14:51:29.021Z,12.44
2023-04-15T14:53:31.804Z,12.64
2023-04-15T14:55:35.979Z,12.39
2023-04-15T14:57:39.062Z,11.95
2023-04-15T14:59:41.885Z,12.49
2023-04-15T15:01:44.881Z,12.14
2023-04-15T15:03:47.957Z,12.09
2023-04-15T15:05:50.907Z,12.32
2023-04-15T15:07:53.798Z,12.27
2023-04-15T15:09:56.725Z,11.80
2023-04-15T15:12:01.881Z,12.06
2023-04-15T15:14:04.626Z,11.91
2023-04-15T15:16:08.115Z,11.86
2023-04-15T15:18:11.752Z,11.08
2023-04-15T15:20:14.629Z,11.56
2023-04-15T15:22:19.490Z,11.08
2023-04-15T15:24:23.769Z,11.70
2023-04-15T15:26:28.091Z,10.72
2023-04-15T15:28:32.213Z,11.43
2023-04-15T15:30:35.020Z,11.51
2023-04-15T15:32:39.089Z,11.55
2023-04-15T15:34:41.975Z,11.81
2023-04-15T15:36:44.810Z,11.87
2023-04-15T15:38:47.627Z,11.71
2023-04-15T15:40:50.508Z,11.49
2023-04-15T15:42:53.528Z,10.76
2023-04-15T15:44:57.707Z,11.79
2023-04-15T15:47:00.799Z,11.76
2023-04-15T15:49:04.518Z,11.68
2023-04-15T15:51:07.592Z,11.12
2023-04-15T15:53:11.394Z,10.67
2023-04-15T15:55:14.188Z,11.55
2023-04-15T15:57:16.933Z,10.61
2023-04-15T15:59:19.706Z,11.48
2023-04-15T16:01:24.017Z,11.13
2023-04-15T16:03:26.943Z,11.85
2023-04-15T16:05:29.842Z,11.88
2023-04-15T16:07:32.591Z,11.47
2023-04-15T16:09:35.579Z,11.79
2023-04-15T16:11:38.305Z,11.84
2023-04-15T16:13:41.030Z,11.63
2023-04-15T16:15:43.743Z,11.54
2023-04-15T16:17:47.853Z,11.49
2023-04-15T16:19:58.762Z,11.32
2023-04-15T16:22:04.076Z,11.48
2023-04-15T16:24:07.396Z,11.30
2023-04-15T16:26:10.136Z,11.47
2023-04-15T16:28:25.540Z,10.98
2023-04-15T16:30:30.108Z,11.43
2023-04-15T16:32:32.997Z,10.78
2023-04-15T16:34:39.206Z,11.33
2023-04-15T16:36:41.967Z,11.10
2023-04-15T16:38:48.307Z,11.17
2023-04-15T16:40:51.516Z,11.14
2023-04-15T16:42:54.334Z,11.28
2023-04-15T16:44:57.243Z,11.42
2023-04-15T16:47:02.207Z,11.43
2023-04-15T16:49:05.462Z,11.05
2023-04-15T16:51:09.983Z,11.10
2023-04-15T16:53:12.956Z,11.25
2023-04-15T16:55:15.987Z,10.77
2023-04-15T16:57:18.732Z,11.02
2023-04-15T16:59:21.578Z,10.67
2023-04-15T17:01:24.518Z,10.53
2023-04-15T17:03:27.517Z,10.83
2023-04-15T17:05:30.698Z,10.86
2023-04-15T17:07:34.928Z,10.51
2023-04-15T17:09:37.983Z,9.84
2023-04-15T17:11:43.017Z,10.58
2023-04-15T17:13:45.834Z,10.44
2023-04-15T17:15:48.771Z,10.13
2023-04-15T17:17:51.577Z,9.98
2023-04-15T17:19:54.396Z,10.44
2023-04-15T17:21:58.092Z,10.57
2023-04-15T17:24:02.294Z,10.23
2023-04-15T17:26:05.209Z,10.15
2023-04-15T17:28:08.036Z,9.00
2023-04-15T17:30:11.513Z,9.96
2023-04-15T17:32:14.460Z,9.70
2023-04-15T17:34:17.379Z,9.59
2023-04-15T17:36:20.517Z,9.37
2023-04-15T17:38:23.301Z,9.81
2023-04-15T17:40:27.505Z,9.89
2023-04-15T17:42:30.337Z,9.56
2023-04-15T17:44:33.146Z,9.68
2023-04-15T17:46:35.996Z,9.68
2023-04-15T17:48:38.768Z,9.17
2023-04-15T17:50:41.592Z,9.10
2023-04-15T17:52:44.893Z,9.08
2023-04-15T17:54:47.716Z,9.13
2023-04-15T17:56:51.929Z,9.11
2023-04-15T17:58:54.791Z,8.47
2023-04-15T18:00:57.697Z,8.56
2023-04-15T18:03:00.561Z,7.52
2023-04-15T18:05:03.698Z,7.59
2023-04-15T18:07:06.985Z,8.50
2023-04-15T18:09:09.809Z,8.63
2023-04-15T18:11:12.532Z,8.63
2023-04-15T18:13:16.681Z,8.15
2023-04-15T18:15:20.028Z,8.57
2023-04-15T18:17:22.847Z,8.42
2023-04-15T18:19:25.775Z,8.29
2023-04-15T18:21:28.520Z,8.18
2023-04-15T18:23:31.242Z,8.02
2023-04-15T18:25:34.196Z,8.02
2023-04-15T18:27:39.256Z,7.49
2023-04-15T18:29:43.833Z,7.98
2023-04-15T18:31:46.628Z,7.95
2023-04-15T18:33:49.431Z,8.13
2023-04-15T18:35:52.271Z,7.69
2023-04-15T18:37:55.061Z,7.89
2023-04-15T18:39:57.914Z,7.83
2023-04-15T18:42:01.883Z,7.86
2023-04-15T18:44:04.701Z,7.89
2023-04-15T18:46:11.841Z,7.93
2023-04-15T18:48:15.941Z,7.98
2023-04-15T18:50:18.913Z,7.36
2023-04-15T18:52:22.223Z,7.96
2023-04-15T18:54:25.077Z,7.90
2023-04-15T18:56:28.265Z,7.90
2023-04-15T18:59:25.701Z,7.82
2023-04-15T19:00:54.462Z,7.69
2023-04-15T19:02:58.720Z,7.40
2023-04-15T19:05:04.114Z,7.58
2023-04-15T19:07:07.315Z,7.30
2023-04-15T19:09:10.329Z,7.84
2023-04-15T19:11:13.124Z,7.35
2023-04-15T19:13:17.713Z,7.45
2023-04-15T19:15:21.762Z,7.69
2023-04-15T19:17:24.589Z,7.70
2023-04-15T19:19:29.393Z,7.47
2023-04-15T19:21:33.155Z,7.03
2023-04-15T19:23:36.037Z,6.87
2023-04-15T19:25:38.873Z,7.46
2023-04-15T19:27:41.634Z,7.33
2023-04-15T19:29:44.562Z,7.31
2023-04-15T19:31:47.307Z,7.58
2023-04-15T19:33:50.271Z,7.49
2023-04-15T19:35:54.426Z,7.19
2023-04-15T19:37:57.270Z,6.56
2023-04-15T19:40:00.556Z,6.24
2023-04-15T19:42:03.674Z,6.89
2023-04-15T19:44:06.778Z,7.35
2023-04-15T19:46:09.865Z,7.18
2023-04-15T19:48:12.673Z,7.16
2023-04-15T19:50:16.606Z,6.97
2023-04-15T19:52:21.946Z,7.01
2023-04-15T19:54:24.715Z,7.08
2023-04-15T19:56:27.497Z,7.28
2023-04-15T19:58:32.394Z,6.76
2023-04-15T20:00:35.298Z,7.00
2023-04-15T20:02:38.196Z,6.86
2023-04-15T20:04:41.267Z,6.74
2023-04-15T20:06:44.052Z,6.61
2023-04-15T20:08:48.149Z,6.74
2023-04-15T20:10:50.891Z,6.87
2023-04-15T20:12:53.657Z,6.99
2023-04-15T20:14:56.355Z,6.91
2023-04-15T20:16:59.013Z,6.77
2023-04-15T20:19:07.487Z,6.89
2023-04-15T20:21:10.192Z,6.78
2023-04-15T20:23:12.858Z,6.72
2023-04-15T20:25:16.873Z,6.67
2023-04-15T20:27:21.244Z,6.56
2023-04-15T20:29:24.108Z,6.60
2023-04-15T20:31:27.008Z,6.77
2023-04-15T20:33:29.874Z,6.45
2023-04-15T20:35:32.573Z,6.97
2023-04-15T20:37:36.266Z,6.99
2023-04-15T20:39:39.658Z,6.75
2023-04-15T20:41:43.691Z,6.94
2023-04-15T20:43:46.364Z,6.90
2023-04-15T20:45:50.532Z,7.01
2023-04-15T20:47:54.718Z,6.89
2023-04-15T20:49:57.502Z,7.20
2023-04-15T20:52:00.196Z,7.10
2023-04-15T20:54:02.873Z,7.15
2023-04-15T20:56:06.449Z,6.89
2023-04-15T20:58:10.755Z,6.91
2023-04-15T21:00:14.096Z,6.93
2023-04-15T21:02:17.022Z,6.98
2023-04-15T21:04:20.957Z,7.06
2023-04-15T21:06:23.743Z,6.99
2023-04-15T21:08:29.596Z,7.21
2023-04-15T21:10:35.283Z,6.70
2023-04-15T21:12:40.808Z,7.23
2023-04-15T21:14:45.156Z,7.12
2023-04-15T21:16:48.072Z,7.12
2023-04-15T21:18:50.960Z,7.25
2023-04-15T21:20:59.906Z,7.09
2023-04-15T21:23:02.737Z,6.74
2023-04-15T21:25:06.240Z,7.37
2023-04-15T21:27:10.880Z,7.21
2023-04-15T21:29:13.937Z,7.33
2023-04-15T21:31:18.284Z,7.11
2023-04-15T21:33:21.284Z,6.34
2023-04-15T21:35:24.048Z,7.24
2023-04-15T21:37:26.800Z,7.32
2023-04-15T21:39:29.723Z,7.10
2023-04-15T21:41:32.708Z,7.18
2023-04-15T21:43:35.512Z,7.02
2023-04-15T21:45:39.353Z,7.10
2023-04-15T21:48:05.122Z,7.13
2023-04-15T21:50:07.654Z,6.75
2023-04-15T21:52:10.920Z,7.12
2023-04-15T21:54:13.744Z,7.10
2023-04-15T21:56:16.544Z,7.00
2023-04-15T21:58:19.442Z,6.90
2023-04-15T22:00:23.142Z,7.04
2023-04-15T22:02:26.103Z,7.11
2023-04-15T22:04:30.516Z,7.18
2023-04-15T22:06:33.367Z,7.02
2023-04-15T22:08:48.290Z,6.86
2023-04-15T22:10:56.152Z,6.97
2023-04-15T22:13:02.444Z,6.98
2023-04-15T22:15:06.010Z,6.96
2023-04-15T22:17:08.771Z,6.98
2023-04-15T22:19:11.709Z,7.06
2023-04-15T22:21:16.255Z,6.87
2023-04-15T22:23:20.450Z,6.24
2023-04-15T22:25:23.377Z,6.45
2023-04-15T22:27:26.219Z,6.80
2023-04-15T22:29:29.040Z,7.18
2023-04-15T22:31:31.880Z,7.21
2023-04-15T22:33:34.799Z,7.14
2023-04-15T22:35:38.300Z,7.31
2023-04-15T22:37:42.495Z,7.30
2023-04-15T22:39:45.480Z,6.94
2023-04-15T22:41:48.410Z,5.82
2023-04-15T22:43:51.134Z,6.93
2023-04-15T22:45:54.877Z,6.71
2023-04-15T22:47:57.790Z,6.66
2023-04-15T22:50:00.827Z,7.08
2023-04-15T22:52:03.655Z,7.20
2023-04-15T22:54:07.766Z,5.91
2023-04-15T22:56:10.661Z,7.05
2023-04-15T22:58:13.587Z,6.03
2023-04-15T23:00:16.522Z,6.87
2023-04-15T23:02:19.420Z,6.38
2023-04-15T23:04:26.958Z,6.70
2023-04-15T23:06:31.146Z,6.85
2023-04-15T23:08:33.880Z,6.52
2023-04-15T23:10:39.918Z,6.28
2023-04-15T23:12:42.632Z,6.69
2023-04-15T23:14:45.382Z,6.34
2023-04-15T23:16:48.105Z,6.71
2023-04-15T23:18:50.846Z,6.86
2023-04-15T23:20:53.564Z,6.99
2023-04-15T23:22:56.320Z,6.84
2023-04-15T23:24:59.246Z,6.88
2023-04-15T23:27:03.333Z,6.40
2023-04-15T23:29:06.102Z,6.34
2023-04-15T23:31:08.777Z,6.84
2023-04-15T23:33:11.989Z,6.78
2023-04-15T23:35:14.728Z,6.70
2023-04-15T23:37:18.668Z,6.92
2023-04-15T23:39:21.416Z,6.92
2023-04-15T23:41:24.174Z,6.76
2023-04-15T23:43:28.267Z,6.91
2023-04-15T23:45:31.032Z,7.04
2023-04-15T23:47:33.800Z,7.09
2023-04-15T23:49:37.169Z,7.11
2023-04-15T23:51:39.876Z,6.94
2023-04-15T23:53:42.611Z,7.02
2023-04-15T23:55:45.384Z,6.89
2023-04-15T23:57:48.362Z,6.93
2023-04-15T23:59:52.894Z,6.84
